26  °C
Temperature
19  °C
  Dewpoint
   Humidity
Temp | Dewpoint | Humidity
21  km/h
Wind Speed
13  mph
Wind Speed
11  kts
Wind Speed
170°
Due South

Wind Speed
Clear
Conditions
Pressure 1016.92 (hPa) - 30.03 (in)
Visibility 6.2 (mi) - 10.0 (km)

Current Conditions
LGTS
Location 6km (3.2mi)
Metar :LGTS 201750Z 17011KT CAVOK 26/19 Q1017 NOSIG
Tue 20th August 19:50 pm

Airport
  Metar Aviation API Data Provided by https://www.checkwx.com/ CSS/SVG/PHP scripts by weather34.com © 2015-2019